• Join FlightAware (Why Join?)
  • Login
  • US Flag 
09:46AM EDT


 

Airport Tracker/Info


-or-


 

Live Flight TrackerFlight Track Log ✈ JIA2257 ✈ 23-Apr-2013 ✈ KCLT - KHSV

Flight Track Log - Related Links

Times and Time Zones

All times are in EDT time to prevent confusion due to time zone crossing. See the JIA2257 flight status page for this flight to view local times or setup timezone preferences in your user account.

Time Position Orientation Groundspeed Altitude Reporting Facility
EDT Latitude Longitude Course Direction KTS MPH feet Rate Location/Type
10:47PM 35.1956 -80.9533 239° Southwest 164 189 1,500  Level Atlanta Center
10:48PM 35.1600 -80.9519 178° South 167 192 2,600 1,560 Climbing Atlanta Center
10:49PM 35.1122 -80.9667 194° South 253 291 3,900 2,100 Climbing Atlanta Center
10:49PM 35.0942 -80.9900 227° Southwest 276 318 5,000 2,700 Climbing Atlanta Center
10:50PM 35.2539 -81.1398 282° West  Level FlightAware Approximate
10:50PM 35.0914 -81.0461 267° West 273 314 6,600  Level Atlanta Center
10:50PM 35.0922 -81.0814 272° West 279 321 8,000 3,180 Climbing Atlanta Center
10:51PM 35.2539 -81.2465 242° Southwest  Level FlightAware Approximate
10:51PM 35.0997 -81.1344 280° West 261 300 9,800  Level Atlanta Center
10:52PM 35.2108 -81.3452 239° Southwest  Level FlightAware Approximate
10:52PM 35.1264 -81.2097 293° West 275 316 11,400  Level Atlanta Center
10:53PM 35.1630 -81.4407 239° Southwest  Level FlightAware Approximate
10:53PM 35.1353 -81.3161 276° West 299 344 13,400  Level Atlanta Center
10:54PM 35.1439 -81.4278 275° West 321 369 15,500 1,800 Climbing Atlanta Center
10:55PM 35.1442 -81.5444 270° West 343 395 17,100 1,620 Climbing Atlanta Center
10:56PM 35.1342 -81.6769 265° West 360 414 18,800 1,800 Climbing Atlanta Center
10:57PM 35.1261 -81.8014 266° West 368 423 20,700 1,500 Climbing Atlanta Center
10:58PM 35.1158 -81.9314 265° West 374 430 21,900 600 Climbing Atlanta Center
10:59PM 35.1056 -82.0636 265° West 387 445 22,000  Climbing Atlanta Center
11:00PM 35.0972 -82.1958 266° West 396 456 22,000  Level Atlanta Center
11:01PM 35.0864 -82.3053 263° West 381 438 22,000  Level Atlanta Center
11:02PM 35.0756 -82.4372 264° West 381 438 22,000  Level Atlanta Center
11:03PM 35.0647 -82.5594 264° West 381 438 22,000  Level Atlanta Center
11:04PM 35.0556 -82.6839 265° West 381 438 22,000  Level Atlanta Center
11:05PM 35.0444 -82.8008 263° West 376 433 22,000  Level Atlanta Center
11:06PM 35.0331 -82.9278 264° West 370 426 22,000  Level Atlanta Center
11:07PM 35.0236 -83.0497 265° West 370 426 22,000  Level Atlanta Center
11:08PM 35.0119 -83.1739 263° West 370 426 22,000  Level Atlanta Center
11:09PM 34.9983 -83.3033 263° West 375 432 22,000  Level Atlanta Center
11:10PM 34.9864 -83.4278 263° West 375 432 22,000  Level Atlanta Center
11:11PM 34.9767 -83.5544 265° West 375 432 22,000  Level Atlanta Center
11:12PM 34.9644 -83.6764 263° West 375 432 22,000  Level Atlanta Center
11:13PM 34.9544 -83.8031 265° West 375 432 22,000  Level Atlanta Center
11:14PM 34.9442 -83.9272 264° West 370 426 22,000  Level Atlanta Center
11:15PM 34.9464 -84.0514 271° West 365 420 22,000  Level Atlanta Center
11:16PM 34.9483 -84.1781 271° West 365 420 22,000  Level Atlanta Center
11:17PM 34.9503 -84.3022 271° West 365 420 22,000  Level Atlanta Center
11:18PM 34.9519 -84.4264 271° West 365 420 22,000  Level Atlanta Center
11:19PM 34.9556 -84.5633 272° West 365 420 22,000  Level Atlanta Center
11:20PM 34.9550 -84.6850 270° West 365 420 22,000  Level Atlanta Center
11:21PM 34.9583 -84.8117 272° West 365 420 22,000  Level Atlanta Center
11:22PM 34.9597 -84.9308 271° West 365 420 22,000 -660 Level Atlanta Center
11:24PM 34.9592 -85.1656 270° West 358 412 20,000 -1,200 Descending Memphis Center
11:25PM 34.9472 -85.2803 263° West 351 404 18,300 -1,680 Descending Memphis Center
11:26PM 34.9350 -85.3925 262° West 351 404 16,700 -1,680 Descending Memphis Center
11:27PM 34.9228 -85.5019 262° West 339 390 15,000 -1,740 Descending Memphis Center
11:28PM 34.9122 -85.6114 263° West 334 384 13,300 -1,800 Descending Memphis Center
11:29PM 34.8997 -85.7211 262° West 334 384 11,500 -1,200 Descending Memphis Center
11:30PM 34.8892 -85.8281 263° West 329 379 11,000 -300 Descending Memphis Center
11:31PM 34.8781 -85.9222 262° West 316 364 11,000 -540 Level Memphis Center
11:32PM 34.8669 -86.0214 262° West 302 348 10,000 -540 Descending Memphis Center
11:33PM 34.8556 -86.1208 262° West 302 348 10,000 -300 Level Memphis Center
11:34PM 34.8428 -86.2303 262° West 292 336 9,400 -1,200 Descending Memphis Center
11:35PM 34.8308 -86.3117 260° West 287 330 7,600 -1,800 Descending Memphis Center
11:36PM 34.8211 -86.3983 262° West 270 311 5,800 -1,620 Descending Memphis Center
11:37PM 34.8092 -86.4822 260° West 258 297 4,400 -900 Descending Memphis Center
11:38PM 34.7989 -86.5586 261° West 253 291 4,000 -600 Descending Memphis Center
11:39PM 34.7886 -86.6325 260° West 234 269 3,200 -840 Descending Memphis Center
11:40PM 34.7781 -86.7011 259° West 224 258 2,400 -540 Descending Memphis Center
11:41PM 34.7506 -86.7553 238° Southwest 203 234 2,200 -240 Descending Memphis Center